createdAt,value
2022-12-03T00:00:12.088Z,16.35
2022-12-03T00:02:41.060Z,14.57
2022-12-03T00:05:08.981Z,14.30
2022-12-03T00:07:38.341Z,16.15
2022-12-03T00:10:07.393Z,14.55
2022-12-03T00:12:35.219Z,14.10
2022-12-03T00:15:02.785Z,15.15
2022-12-03T00:17:30.124Z,14.33
2022-12-03T00:19:57.472Z,14.43
2022-12-03T00:22:24.931Z,13.07
2022-12-03T00:24:52.480Z,17.13
2022-12-03T00:27:20.026Z,14.75
2022-12-03T00:29:47.628Z,16.27
2022-12-03T00:32:14.998Z,15.70
2022-12-03T00:34:42.367Z,14.75
2022-12-03T00:37:13.430Z,12.40
2022-12-03T00:39:40.826Z,13.55
2022-12-03T00:42:08.205Z,14.17
2022-12-03T00:44:35.893Z,13.63
2022-12-03T00:47:03.886Z,15.68
2022-12-03T00:49:31.930Z,14.40
2022-12-03T00:51:59.335Z,15.55
2022-12-03T00:54:31.590Z,18.33
2022-12-03T00:56:59.600Z,16.10
2022-12-03T00:59:26.927Z,15.43
2022-12-03T01:01:54.331Z,16.58
2022-12-03T01:04:21.856Z,19.85
2022-12-03T01:06:49.255Z,16.80
2022-12-03T01:09:16.663Z,17.70
2022-12-03T01:11:44.021Z,18.35
2022-12-03T01:14:16.555Z,17.23
2022-12-03T01:16:44.393Z,16.58
2022-12-03T01:19:16.473Z,16.43
2022-12-03T01:21:49.725Z,19.25
2022-12-03T01:24:17.909Z,16.85
2022-12-03T01:26:45.434Z,15.43
2022-12-03T01:29:12.990Z,14.73
2022-12-03T01:31:58.970Z,13.27
2022-12-03T01:34:26.352Z,12.98
2022-12-03T01:36:53.824Z,15.50
2022-12-03T01:39:21.318Z,14.50
2022-12-03T01:41:50.078Z,14.27
2022-12-03T01:44:24.326Z,14.70
2022-12-03T01:46:53.819Z,15.55
2022-12-03T01:49:25.546Z,16.63
2022-12-03T01:51:56.839Z,14.35
2022-12-03T01:54:38.470Z,17.15
2022-12-03T01:57:09.602Z,17.80
2022-12-03T01:59:39.247Z,14.77
2022-12-03T02:02:29.156Z,15.15
2022-12-03T02:04:57.732Z,16.45
2022-12-03T02:07:33.293Z,14.85
2022-12-03T02:10:02.614Z,15.33
2022-12-03T02:12:54.830Z,16.65
2022-12-03T02:15:22.271Z,17.33
2022-12-03T02:17:49.885Z,15.68
2022-12-03T02:20:17.457Z,13.32
2022-12-03T02:23:00.348Z,12.97
2022-12-03T02:25:32.314Z,13.07
2022-12-03T02:28:01.088Z,12.35
2022-12-03T02:30:30.343Z,13.07
2022-12-03T02:32:58.625Z,12.35
2022-12-03T02:35:34.874Z,11.47
2022-12-03T02:38:19.060Z,11.95
2022-12-03T02:40:50.114Z,12.65
2022-12-03T02:43:20.397Z,11.30
2022-12-03T02:45:51.930Z,12.70
2022-12-03T02:48:27.883Z,11.77
2022-12-03T02:51:05.174Z,11.50
2022-12-03T02:53:38.616Z,12.27
2022-12-03T02:56:06.776Z,11.63
2022-12-03T02:58:34.776Z,11.50
2022-12-03T03:01:04.378Z,12.43
2022-12-03T03:03:33.189Z,10.93
2022-12-03T03:06:03.109Z,13.98
2022-12-03T03:08:31.423Z,14.52
2022-12-03T03:11:01.263Z,13.50
2022-12-03T03:13:31.554Z,11.30
2022-12-03T03:15:59.621Z,18.55
2022-12-03T03:18:27.015Z,14.88
2022-12-03T03:20:54.536Z,13.60
2022-12-03T03:23:24.462Z,13.93
2022-12-03T03:26:03.018Z,14.33
2022-12-03T03:28:31.321Z,13.23
2022-12-03T03:31:01.021Z,15.95
2022-12-03T03:33:29.234Z,15.88
2022-12-03T03:35:57.795Z,15.52
2022-12-03T03:38:25.232Z,14.90
2022-12-03T03:40:54.221Z,14.82
2022-12-03T03:43:23.255Z,13.60
2022-12-03T03:45:51.551Z,15.63
2022-12-03T03:48:20.012Z,13.70
2022-12-03T03:50:47.703Z,13.93
2022-12-03T03:53:15.851Z,15.00
2022-12-03T03:55:43.307Z,17.00
2022-12-03T03:58:11.124Z,16.75
2022-12-03T04:00:38.607Z,18.80
2022-12-03T04:03:06.571Z,16.67
2022-12-03T04:05:34.031Z,14.77
2022-12-03T04:08:01.578Z,15.80
2022-12-03T04:10:47.754Z,16.17
2022-12-03T04:13:15.851Z,14.45
2022-12-03T04:15:43.180Z,14.53
2022-12-03T04:18:28.769Z,14.52
2022-12-03T04:21:15.997Z,13.20
2022-12-03T04:23:43.388Z,14.93
2022-12-03T04:26:29.162Z,13.60
2022-12-03T04:28:56.621Z,13.97
2022-12-03T04:31:43.018Z,13.00
2022-12-03T04:34:30.117Z,13.10
2022-12-03T04:36:57.432Z,13.50
2022-12-03T04:39:24.804Z,14.13
2022-12-03T04:41:52.225Z,12.67
2022-12-03T04:44:38.698Z,15.00
2022-12-03T04:47:12.696Z,13.48
2022-12-03T04:49:44.274Z,15.82
2022-12-03T04:52:13.177Z,13.43
2022-12-03T04:54:41.245Z,14.03
2022-12-03T04:57:09.723Z,13.05
2022-12-03T04:59:37.614Z,12.45
2022-12-03T05:02:06.438Z,14.60
2022-12-03T05:04:34.286Z,14.25
2022-12-03T05:07:01.653Z,14.03
2022-12-03T05:09:28.986Z,16.92
2022-12-03T05:11:56.339Z,18.55
2022-12-03T05:14:23.907Z,30.55
2022-12-03T05:16:51.797Z,21.55
2022-12-03T05:19:19.597Z,22.33
2022-12-03T05:21:46.934Z,24.83
2022-12-03T05:24:14.876Z,22.92
2022-12-03T05:26:42.237Z,24.15
2022-12-03T05:29:09.620Z,24.45
2022-12-03T05:31:36.974Z,32.17
2022-12-03T05:34:04.587Z,25.88
2022-12-03T05:36:32.301Z,25.13
2022-12-03T05:38:59.640Z,28.88
2022-12-03T05:41:45.102Z,30.45
2022-12-03T05:44:15.085Z,34.93
2022-12-03T05:46:46.332Z,28.90
2022-12-03T05:49:14.272Z,29.27
2022-12-03T05:51:43.402Z,30.20
2022-12-03T05:54:10.741Z,31.10
2022-12-03T05:56:38.109Z,33.27
2022-12-03T05:59:05.941Z,29.90
2022-12-03T06:01:33.350Z,29.70
2022-12-03T06:04:01.159Z,32.03
2022-12-03T06:06:28.578Z,33.00
2022-12-03T06:08:55.940Z,30.93
2022-12-03T06:11:23.349Z,32.15
2022-12-03T06:13:52.541Z,26.95
2022-12-03T06:16:20.069Z,29.40
2022-12-03T06:18:47.433Z,26.33
2022-12-03T06:21:14.758Z,25.73
2022-12-03T06:23:45.019Z,23.58
2022-12-03T06:26:13.276Z,23.90
2022-12-03T06:28:46.551Z,23.15
2022-12-03T06:31:14.638Z,21.80
2022-12-03T06:33:41.971Z,20.43
2022-12-03T06:36:09.901Z,22.70
2022-12-03T06:38:37.218Z,22.85
2022-12-03T06:41:04.952Z,21.60
2022-12-03T06:43:32.780Z,22.42
2022-12-03T06:46:00.510Z,20.57
2022-12-03T06:48:28.133Z,23.45
2022-12-03T06:50:55.866Z,28.98
2022-12-03T06:53:25.429Z,25.27
2022-12-03T06:55:53.867Z,23.70
2022-12-03T06:58:21.441Z,25.50
2022-12-03T07:00:49.288Z,25.48
2022-12-03T07:03:16.954Z,25.05
2022-12-03T07:05:44.326Z,20.98
2022-12-03T07:08:12.338Z,25.90
2022-12-03T07:10:39.750Z,24.07
2022-12-03T07:13:07.329Z,23.70
2022-12-03T07:15:35.188Z,26.95
2022-12-03T07:18:02.875Z,21.33
2022-12-03T07:20:30.364Z,21.65
2022-12-03T07:22:57.776Z,23.77
2022-12-03T07:25:25.200Z,21.10
2022-12-03T07:27:52.569Z,23.27
2022-12-03T07:30:20.101Z,17.58
2022-12-03T07:32:47.561Z,15.77
2022-12-03T07:35:15.308Z,18.33
2022-12-03T07:37:42.726Z,21.00
2022-12-03T07:40:10.753Z,18.00
2022-12-03T07:42:38.340Z,17.63
2022-12-03T07:45:06.356Z,19.88
2022-12-03T07:47:37.309Z,17.60
2022-12-03T07:50:06.184Z,18.35
2022-12-03T07:52:33.867Z,15.50
2022-12-03T07:55:01.410Z,17.88
2022-12-03T07:57:29.061Z,18.98
2022-12-03T07:59:56.384Z,16.63
2022-12-03T08:02:23.736Z,14.65
2022-12-03T08:04:51.295Z,15.57
2022-12-03T08:07:18.727Z,14.90
2022-12-03T08:09:46.264Z,14.32
2022-12-03T08:12:17.491Z,17.33
2022-12-03T08:14:45.187Z,16.92
2022-12-03T08:17:14.912Z,15.48
2022-12-03T08:19:46.949Z,16.60
2022-12-03T08:22:16.732Z,16.25
2022-12-03T08:24:44.372Z,18.00
2022-12-03T08:27:20.013Z,17.45
2022-12-03T08:29:47.832Z,18.02
2022-12-03T08:32:15.240Z,16.50
2022-12-03T08:34:44.830Z,20.58
2022-12-03T08:37:19.816Z,21.33
2022-12-03T08:39:49.474Z,21.15
2022-12-03T08:42:40.157Z,18.30
2022-12-03T08:45:40.435Z,15.30
2022-12-03T08:48:27.866Z,16.38
2022-12-03T08:50:58.190Z,17.93
2022-12-03T08:53:37.301Z,16.10
2022-12-03T08:56:22.960Z,17.30
2022-12-03T08:59:01.212Z,18.90
2022-12-03T09:01:42.090Z,16.70
2022-12-03T09:04:30.747Z,17.43
2022-12-03T09:06:59.010Z,15.73
2022-12-03T09:09:26.875Z,19.42
2022-12-03T09:11:54.768Z,23.42
2022-12-03T09:14:23.062Z,18.50
2022-12-03T09:16:56.008Z,18.00
2022-12-03T09:19:25.913Z,17.05
2022-12-03T09:21:54.878Z,17.55
2022-12-03T09:24:22.379Z,17.15
2022-12-03T09:26:50.337Z,19.20
2022-12-03T09:29:17.722Z,16.53
2022-12-03T09:31:45.177Z,16.98
2022-12-03T09:34:13.079Z,20.83
2022-12-03T09:36:40.952Z,22.42
2022-12-03T09:39:08.417Z,19.25
2022-12-03T09:41:36.144Z,16.23
2022-12-03T09:44:05.268Z,16.70
2022-12-03T09:46:35.349Z,17.25
2022-12-03T09:49:03.865Z,15.70
2022-12-03T09:51:36.546Z,14.93
2022-12-03T09:54:06.552Z,16.57
2022-12-03T09:56:38.129Z,14.38
2022-12-03T09:59:15.860Z,14.85
2022-12-03T10:01:43.736Z,15.43
2022-12-03T10:04:11.454Z,14.75
2022-12-03T10:06:45.573Z,15.23
2022-12-03T10:09:17.661Z,12.57
2022-12-03T10:11:45.203Z,15.57
2022-12-03T10:14:15.092Z,14.13
2022-12-03T10:16:42.659Z,14.43
2022-12-03T10:19:19.585Z,15.43
2022-12-03T10:21:47.123Z,17.17
2022-12-03T10:24:17.692Z,15.52
2022-12-03T10:26:46.996Z,16.60
2022-12-03T10:29:19.963Z,17.13
2022-12-03T10:31:58.510Z,17.87
2022-12-03T10:34:28.291Z,17.20
2022-12-03T10:37:20.304Z,22.67
2022-12-03T10:40:00.756Z,21.25
2022-12-03T10:42:30.730Z,22.75
2022-12-03T10:45:16.835Z,20.03
2022-12-03T10:48:02.398Z,21.42
2022-12-03T10:50:29.986Z,21.90
2022-12-03T10:52:57.327Z,20.65
2022-12-03T10:55:25.528Z,20.17
2022-12-03T10:57:53.019Z,22.27
2022-12-03T11:00:21.563Z,21.30
2022-12-03T11:02:56.123Z,20.38
2022-12-03T11:05:29.446Z,18.73
2022-12-03T11:07:57.326Z,22.92
2022-12-03T11:10:25.819Z,19.77
2022-12-03T11:13:28.486Z,20.77
2022-12-03T11:15:56.796Z,20.05
2022-12-03T11:18:50.910Z,20.92
2022-12-03T11:21:18.384Z,20.52
2022-12-03T11:23:45.725Z,20.03
2022-12-03T11:26:19.566Z,20.40
2022-12-03T11:28:47.610Z,20.90
2022-12-03T11:31:35.356Z,18.83
2022-12-03T11:34:23.478Z,18.80
2022-12-03T11:37:12.221Z,17.43
2022-12-03T11:39:45.815Z,16.95
2022-12-03T11:42:41.154Z,19.17
2022-12-03T11:45:08.820Z,18.23
2022-12-03T11:47:45.915Z,18.13
2022-12-03T11:50:39.306Z,18.93
2022-12-03T11:53:25.529Z,16.20
2022-12-03T11:56:09.323Z,20.98
2022-12-03T11:58:39.792Z,18.15
2022-12-03T12:01:08.548Z,16.50
2022-12-03T12:03:47.575Z,23.90
2022-12-03T12:06:20.767Z,17.75
2022-12-03T12:08:51.453Z,29.20
2022-12-03T12:11:40.104Z,96.55
2022-12-03T12:14:10.014Z,24.85
2022-12-03T12:16:50.769Z,15.00
2022-12-03T12:19:41.558Z,15.00
2022-12-03T12:22:26.862Z,12.07
2022-12-03T12:25:01.314Z,15.10
2022-12-03T12:27:45.441Z,16.17
2022-12-03T12:30:18.645Z,15.50
2022-12-03T12:32:49.428Z,11.93
2022-12-03T12:35:23.527Z,12.43
2022-12-03T12:38:00.824Z,12.30
2022-12-03T12:40:31.561Z,13.88
2022-12-03T12:43:12.425Z,14.63
2022-12-03T12:45:44.059Z,16.83
2022-12-03T12:48:34.220Z,17.77
2022-12-03T12:51:14.106Z,16.23
2022-12-03T12:53:43.213Z,19.02
2022-12-03T12:56:46.572Z,17.83
2022-12-03T12:59:15.586Z,16.75
2022-12-03T13:01:45.026Z,11.93
2022-12-03T13:04:19.893Z,14.25
2022-12-03T13:06:53.805Z,15.10
2022-12-03T13:09:24.098Z,14.00
2022-12-03T13:11:58.273Z,17.10
2022-12-03T13:14:30.810Z,13.38
2022-12-03T13:17:01.515Z,10.93
2022-12-03T13:19:31.566Z,11.27
2022-12-03T13:22:02.505Z,12.80
2022-12-03T13:24:41.068Z,12.82
2022-12-03T13:27:14.399Z,12.27
2022-12-03T13:29:41.861Z,10.68
2022-12-03T13:32:16.426Z,15.25
2022-12-03T13:34:45.129Z,12.07
2022-12-03T13:37:20.396Z,14.20
2022-12-03T13:39:54.497Z,11.77
2022-12-03T13:42:39.584Z,12.70
2022-12-03T13:45:31.001Z,14.25
2022-12-03T13:48:14.214Z,22.67
2022-12-03T13:50:47.373Z,28.88
2022-12-03T13:53:25.292Z,18.63
2022-12-03T13:55:58.278Z,19.45
2022-12-03T13:58:25.801Z,14.38
2022-12-03T14:01:01.022Z,27.07
2022-12-03T14:03:30.783Z,17.02
2022-12-03T14:05:58.425Z,17.85
2022-12-03T14:08:27.036Z,19.08
2022-12-03T14:11:00.236Z,19.35
2022-12-03T14:13:30.779Z,17.53
2022-12-03T14:16:13.833Z,15.70
2022-12-03T14:18:41.725Z,12.70
2022-12-03T14:21:09.074Z,20.58
2022-12-03T14:23:37.558Z,30.05
2022-12-03T14:26:05.238Z,36.33
2022-12-03T14:28:32.949Z,37.50
2022-12-03T14:31:00.506Z,31.35
2022-12-03T14:33:28.689Z,34.10
2022-12-03T14:35:56.772Z,40.50
2022-12-03T14:38:25.172Z,38.93
2022-12-03T14:40:52.871Z,36.45
2022-12-03T14:43:21.985Z,38.33
2022-12-03T14:45:50.110Z,39.08
2022-12-03T14:48:18.127Z,39.83
2022-12-03T14:50:45.496Z,38.23
2022-12-03T14:53:12.999Z,38.97
2022-12-03T14:55:40.603Z,37.85
2022-12-03T14:58:08.329Z,37.10
2022-12-03T15:00:36.681Z,45.72
2022-12-03T15:03:08.973Z,43.43
2022-12-03T15:05:36.675Z,41.92
2022-12-03T15:08:04.136Z,49.15
2022-12-03T15:10:31.949Z,44.20
2022-12-03T15:12:59.535Z,42.92
2022-12-03T15:15:27.535Z,50.63
2022-12-03T15:17:55.312Z,43.97
2022-12-03T15:20:22.655Z,39.15
2022-12-03T15:22:50.370Z,47.10
2022-12-03T15:25:24.857Z,50.17
2022-12-03T15:27:52.273Z,48.47
2022-12-03T15:30:21.016Z,46.35
2022-12-03T15:32:48.481Z,39.38
2022-12-03T15:35:18.815Z,44.05
2022-12-03T15:37:46.359Z,45.60
2022-12-03T15:40:14.316Z,43.10
2022-12-03T15:42:41.994Z,44.35
2022-12-03T15:45:14.986Z,41.28
2022-12-03T15:47:43.266Z,44.03
2022-12-03T15:50:11.062Z,49.92
2022-12-03T15:52:38.678Z,50.10
2022-12-03T15:55:06.771Z,55.08
2022-12-03T15:57:34.334Z,53.88
2022-12-03T16:00:02.059Z,55.28
2022-12-03T16:02:40.374Z,52.20
2022-12-03T16:05:10.482Z,45.63
2022-12-03T16:07:39.402Z,48.58
2022-12-03T16:10:09.056Z,50.42
2022-12-03T16:12:36.898Z,42.33
2022-12-03T16:15:04.662Z,40.67
2022-12-03T16:17:32.000Z,41.50
2022-12-03T16:19:59.403Z,40.83
2022-12-03T16:22:26.781Z,41.97
2022-12-03T16:24:54.220Z,35.22
2022-12-03T16:27:25.659Z,34.53
2022-12-03T16:29:53.924Z,32.70
2022-12-03T16:32:21.550Z,30.80
2022-12-03T16:34:49.304Z,27.35
2022-12-03T16:37:16.947Z,23.52
2022-12-03T16:39:48.110Z,19.98
2022-12-03T16:42:17.531Z,20.23
2022-12-03T16:45:03.639Z,18.08
2022-12-03T16:47:34.124Z,14.55
2022-12-03T16:50:03.249Z,14.20
2022-12-03T16:52:30.612Z,14.45
2022-12-03T16:54:58.719Z,23.53
2022-12-03T16:57:30.377Z,15.15
2022-12-03T17:00:01.082Z,11.30
2022-12-03T17:02:28.704Z,13.90
2022-12-03T17:04:56.085Z,12.27
2022-12-03T17:07:23.510Z,13.17
2022-12-03T17:09:50.865Z,11.80
2022-12-03T17:12:18.196Z,12.80
2022-12-03T17:14:45.617Z,13.93
2022-12-03T17:17:12.938Z,14.18
2022-12-03T17:19:40.361Z,18.73
2022-12-03T17:22:07.678Z,17.15
2022-12-03T17:24:35.097Z,13.27
2022-12-03T17:27:02.492Z,13.73
2022-12-03T17:29:30.283Z,14.07
2022-12-03T17:31:57.626Z,12.77
2022-12-03T17:34:25.230Z,14.15
2022-12-03T17:36:52.871Z,18.90
2022-12-03T17:39:20.593Z,12.48
2022-12-03T17:41:48.138Z,11.68
2022-12-03T17:44:20.725Z,12.13
2022-12-03T17:46:48.831Z,13.95
2022-12-03T17:49:16.819Z,12.70
2022-12-03T17:51:44.246Z,11.05
2022-12-03T17:54:11.535Z,13.02
2022-12-03T17:56:39.609Z,12.63
2022-12-03T17:59:07.032Z,10.57
2022-12-03T18:01:34.365Z,10.93
2022-12-03T18:04:01.766Z,10.18
2022-12-03T18:06:29.172Z,9.63
2022-12-03T18:08:56.481Z,10.63
2022-12-03T18:11:24.313Z,9.35
2022-12-03T18:13:52.214Z,11.35
2022-12-03T18:16:19.714Z,12.60
2022-12-03T18:18:47.048Z,13.18
2022-12-03T18:21:15.105Z,14.07
2022-12-03T18:23:42.701Z,11.65
2022-12-03T18:26:10.010Z,12.63
2022-12-03T18:28:37.291Z,11.50
2022-12-03T18:31:07.237Z,11.45
2022-12-03T18:33:34.725Z,9.50
2022-12-03T18:36:02.262Z,10.13
2022-12-03T18:38:31.366Z,9.60
2022-12-03T18:40:58.762Z,12.25
2022-12-03T18:43:28.386Z,13.57
2022-12-03T18:45:55.700Z,8.90
2022-12-03T18:48:23.359Z,10.48
2022-12-03T18:50:50.621Z,9.45
2022-12-03T18:53:19.637Z,11.32
2022-12-03T18:55:47.970Z,9.32
2022-12-03T18:58:19.594Z,8.13
2022-12-03T19:00:46.939Z,8.23
2022-12-03T19:03:14.410Z,9.63
2022-12-03T19:05:41.760Z,11.00
2022-12-03T19:08:14.840Z,11.50
2022-12-03T19:10:43.487Z,12.70
2022-12-03T19:13:11.097Z,14.13
2022-12-03T19:15:39.633Z,10.55
2022-12-03T19:18:07.797Z,9.85
2022-12-03T19:20:35.086Z,10.25
2022-12-03T19:23:02.722Z,9.50
2022-12-03T19:25:29.988Z,11.88
2022-12-03T19:27:57.870Z,10.20
2022-12-03T19:30:25.500Z,9.32
2022-12-03T19:32:52.797Z,9.82
2022-12-03T19:35:21.641Z,12.40
2022-12-03T19:37:50.023Z,10.00
2022-12-03T19:40:17.737Z,7.97
2022-12-03T19:42:45.392Z,8.05
2022-12-03T19:45:12.687Z,11.50
2022-12-03T19:47:40.192Z,8.73
2022-12-03T19:50:08.774Z,9.27
2022-12-03T19:52:37.014Z,9.35
2022-12-03T19:55:05.510Z,7.95
2022-12-03T19:57:33.147Z,9.13
2022-12-03T20:00:01.363Z,9.33
2022-12-03T20:02:28.794Z,8.70
2022-12-03T20:04:56.794Z,9.48
2022-12-03T20:07:24.130Z,9.13
2022-12-03T20:09:52.116Z,9.23
2022-12-03T20:12:19.609Z,10.13
2022-12-03T20:14:46.927Z,12.45
2022-12-03T20:17:14.248Z,11.15
2022-12-03T20:19:42.725Z,12.95
2022-12-03T20:22:11.307Z,11.85
2022-12-03T20:24:38.533Z,9.50
2022-12-03T20:27:09.168Z,10.20
2022-12-03T20:29:40.570Z,13.32
2022-12-03T20:32:10.179Z,11.98
2022-12-03T20:34:39.500Z,10.60
2022-12-03T20:37:08.260Z,9.90
2022-12-03T20:39:35.998Z,10.05
2022-12-03T20:42:03.444Z,10.65
2022-12-03T20:44:30.701Z,9.25
2022-12-03T20:46:58.164Z,11.00
2022-12-03T20:49:25.504Z,19.77
2022-12-03T20:51:52.802Z,8.35
2022-12-03T20:54:20.205Z,11.02
2022-12-03T20:56:47.558Z,13.60
2022-12-03T20:59:17.014Z,10.48
2022-12-03T21:01:45.165Z,9.60
2022-12-03T21:04:18.298Z,8.30
2022-12-03T21:06:46.321Z,10.32
2022-12-03T21:09:14.682Z,10.75
2022-12-03T21:11:42.779Z,11.18
2022-12-03T21:14:11.712Z,10.50
2022-12-03T21:17:07.261Z,8.98
2022-12-03T21:19:32.065Z,10.68
2022-12-03T21:21:59.457Z,13.25
2022-12-03T21:24:27.031Z,14.15
2022-12-03T21:26:54.378Z,11.10
2022-12-03T21:29:22.270Z,10.90
2022-12-03T21:31:49.594Z,12.27
2022-12-03T21:34:16.946Z,12.00
2022-12-03T21:36:47.012Z,12.70
2022-12-03T21:39:14.674Z,10.90
2022-12-03T21:41:41.998Z,12.75
2022-12-03T21:44:29.585Z,11.82
2022-12-03T21:47:09.144Z,66.50
2022-12-03T21:49:40.731Z,11.85
2022-12-03T21:52:08.015Z,14.47
2022-12-03T21:54:35.478Z,13.38
2022-12-03T21:57:03.291Z,12.65
2022-12-03T21:59:30.667Z,12.75
2022-12-03T22:01:58.410Z,13.55
2022-12-03T22:04:25.986Z,10.53
2022-12-03T22:06:53.494Z,11.35
2022-12-03T22:09:26.281Z,13.93
2022-12-03T22:11:57.141Z,12.05
2022-12-03T22:14:24.444Z,11.48
2022-12-03T22:16:51.803Z,11.63
2022-12-03T22:19:19.139Z,13.00
2022-12-03T22:21:50.433Z,13.77
2022-12-03T22:24:19.148Z,13.93
2022-12-03T22:26:47.720Z,15.15
2022-12-03T22:29:15.247Z,12.50
2022-12-03T22:31:42.965Z,11.55
2022-12-03T22:34:10.178Z,14.50
2022-12-03T22:36:37.795Z,14.02
2022-12-03T22:39:05.603Z,15.00
2022-12-03T22:41:32.993Z,11.17
2022-12-03T22:44:00.379Z,13.15
2022-12-03T22:46:27.807Z,13.60
2022-12-03T22:48:55.105Z,11.65
2022-12-03T22:51:24.787Z,13.10
2022-12-03T22:54:00.432Z,11.90
2022-12-03T22:56:29.903Z,12.65
2022-12-03T22:58:57.342Z,14.90
2022-12-03T23:01:32.638Z,12.55
2022-12-03T23:04:00.657Z,15.10
2022-12-03T23:06:29.033Z,11.33
2022-12-03T23:08:58.461Z,14.60
2022-12-03T23:11:26.534Z,12.82
2022-12-03T23:13:54.093Z,12.15
2022-12-03T23:16:26.741Z,12.60
2022-12-03T23:18:54.362Z,12.00
2022-12-03T23:21:29.957Z,12.93
2022-12-03T23:24:01.581Z,11.18
2022-12-03T23:26:29.427Z,12.80
2022-12-03T23:28:57.159Z,13.32
2022-12-03T23:31:32.247Z,12.60
2022-12-03T23:34:00.647Z,16.33
2022-12-03T23:36:29.951Z,14.50
2022-12-03T23:38:57.341Z,12.85
2022-12-03T23:41:25.101Z,15.02
2022-12-03T23:43:53.010Z,12.43
2022-12-03T23:46:23.214Z,13.05
2022-12-03T23:48:52.736Z,12.45
2022-12-03T23:51:22.939Z,12.60
2022-12-03T23:53:50.834Z,12.63
2022-12-03T23:56:22.890Z,15.90
2022-12-03T23:58:50.583Z,12.90
